sensor_id;sensor_type;location;lat;lon;timestamp;P1;durP1;ratioP1;P2;durP2;ratioP2
20511;SDS011;10414;52.074;5.126;2023-12-14T00:00:29;19.42;;;7.15;;
20511;SDS011;10414;52.074;5.126;2023-12-14T00:02:58;17.48;;;8.32;;
20511;SDS011;10414;52.074;5.126;2023-12-14T00:05:25;18.17;;;7.60;;
20511;SDS011;10414;52.074;5.126;2023-12-14T00:07:52;15.52;;;7.28;;
20511;SDS011;10414;52.074;5.126;2023-12-14T00:10:19;17.10;;;7.80;;
20511;SDS011;10414;52.074;5.126;2023-12-14T00:12:46;16.30;;;7.22;;
20511;SDS011;10414;52.074;5.126;2023-12-14T00:15:14;18.80;;;7.28;;
20511;SDS011;10414;52.074;5.126;2023-12-14T00:17:41;22.75;;;9.10;;
20511;SDS011;10414;52.074;5.126;2023-12-14T00:20:09;15.18;;;6.68;;
20511;SDS011;10414;52.074;5.126;2023-12-14T00:22:36;19.65;;;7.90;;
20511;SDS011;10414;52.074;5.126;2023-12-14T00:25:04;20.23;;;7.45;;
20511;SDS011;10414;52.074;5.126;2023-12-14T00:27:31;15.27;;;7.35;;
20511;SDS011;10414;52.074;5.126;2023-12-14T00:29:59;16.55;;;7.93;;
20511;SDS011;10414;52.074;5.126;2023-12-14T00:32:25;17.25;;;7.40;;
20511;SDS011;10414;52.074;5.126;2023-12-14T00:34:52;16.85;;;7.47;;
20511;SDS011;10414;52.074;5.126;2023-12-14T00:37:20;15.23;;;7.05;;
20511;SDS011;10414;52.074;5.126;2023-12-14T00:39:47;15.35;;;6.97;;
20511;SDS011;10414;52.074;5.126;2023-12-14T00:42:14;14.00;;;6.75;;
20511;SDS011;10414;52.074;5.126;2023-12-14T00:44:41;16.25;;;7.35;;
20511;SDS011;10414;52.074;5.126;2023-12-14T00:47:08;14.68;;;6.72;;
20511;SDS011;10414;52.074;5.126;2023-12-14T00:49:35;13.48;;;6.22;;
20511;SDS011;10414;52.074;5.126;2023-12-14T00:52:03;16.30;;;7.35;;
20511;SDS011;10414;52.074;5.126;2023-12-14T00:54:32;14.73;;;7.20;;
20511;SDS011;10414;52.074;5.126;2023-12-14T00:56:59;14.85;;;6.38;;
20511;SDS011;10414;52.074;5.126;2023-12-14T00:59:26;15.88;;;7.47;;
20511;SDS011;10414;52.074;5.126;2023-12-14T01:01:52;16.38;;;7.47;;
20511;SDS011;10414;52.074;5.126;2023-12-14T01:04:18;15.70;;;7.00;;
20511;SDS011;10414;52.074;5.126;2023-12-14T01:06:45;14.75;;;7.10;;
20511;SDS011;10414;52.074;5.126;2023-12-14T01:09:12;14.65;;;7.40;;
20511;SDS011;10414;52.074;5.126;2023-12-14T01:11:40;17.38;;;8.57;;
20511;SDS011;10414;52.074;5.126;2023-12-14T01:14:07;15.23;;;6.97;;
20511;SDS011;10414;52.074;5.126;2023-12-14T01:16:34;14.95;;;7.43;;
20511;SDS011;10414;52.074;5.126;2023-12-14T01:19:01;16.40;;;7.43;;
20511;SDS011;10414;52.074;5.126;2023-12-14T01:21:27;16.65;;;8.32;;
20511;SDS011;10414;52.074;5.126;2023-12-14T01:23:54;13.60;;;6.70;;
20511;SDS011;10414;52.074;5.126;2023-12-14T01:26:22;16.13;;;8.32;;
20511;SDS011;10414;52.074;5.126;2023-12-14T01:28:50;14.43;;;7.20;;
20511;SDS011;10414;52.074;5.126;2023-12-14T01:31:17;16.05;;;7.85;;
20511;SDS011;10414;52.074;5.126;2023-12-14T01:33:44;16.63;;;7.03;;
20511;SDS011;10414;52.074;5.126;2023-12-14T01:36:19;17.20;;;8.27;;
20511;SDS011;10414;52.074;5.126;2023-12-14T01:38:47;16.60;;;7.20;;
20511;SDS011;10414;52.074;5.126;2023-12-14T01:41:14;17.15;;;7.60;;
20511;SDS011;10414;52.074;5.126;2023-12-14T01:43:41;16.13;;;7.95;;
20511;SDS011;10414;52.074;5.126;2023-12-14T01:46:09;19.90;;;8.57;;
20511;SDS011;10414;52.074;5.126;2023-12-14T01:48:40;16.50;;;7.38;;
20511;SDS011;10414;52.074;5.126;2023-12-14T01:51:07;16.52;;;7.63;;
20511;SDS011;10414;52.074;5.126;2023-12-14T01:53:34;17.45;;;7.43;;
20511;SDS011;10414;52.074;5.126;2023-12-14T01:56:01;16.48;;;7.57;;
20511;SDS011;10414;52.074;5.126;2023-12-14T01:58:28;16.10;;;7.70;;
20511;SDS011;10414;52.074;5.126;2023-12-14T02:00:55;17.20;;;7.53;;
20511;SDS011;10414;52.074;5.126;2023-12-14T02:03:31;15.48;;;7.30;;
20511;SDS011;10414;52.074;5.126;2023-12-14T02:05:58;13.13;;;6.88;;
20511;SDS011;10414;52.074;5.126;2023-12-14T02:08:25;15.90;;;7.47;;
20511;SDS011;10414;52.074;5.126;2023-12-14T02:10:54;14.20;;;7.32;;
20511;SDS011;10414;52.074;5.126;2023-12-14T02:13:21;15.10;;;7.45;;
20511;SDS011;10414;52.074;5.126;2023-12-14T02:15:48;14.70;;;7.47;;
20511;SDS011;10414;52.074;5.126;2023-12-14T02:18:14;14.95;;;7.05;;
20511;SDS011;10414;52.074;5.126;2023-12-14T02:20:43;16.55;;;7.13;;
20511;SDS011;10414;52.074;5.126;2023-12-14T02:23:11;16.90;;;7.72;;
20511;SDS011;10414;52.074;5.126;2023-12-14T02:25:38;19.00;;;8.18;;
20511;SDS011;10414;52.074;5.126;2023-12-14T02:28:05;14.85;;;7.60;;
20511;SDS011;10414;52.074;5.126;2023-12-14T02:30:32;17.83;;;7.72;;
20511;SDS011;10414;52.074;5.126;2023-12-14T02:32:59;17.75;;;7.70;;
20511;SDS011;10414;52.074;5.126;2023-12-14T02:35:25;18.95;;;7.70;;
20511;SDS011;10414;52.074;5.126;2023-12-14T02:37:52;20.30;;;7.35;;
20511;SDS011;10414;52.074;5.126;2023-12-14T02:40:21;17.55;;;8.52;;
20511;SDS011;10414;52.074;5.126;2023-12-14T02:42:49;16.95;;;7.95;;
20511;SDS011;10414;52.074;5.126;2023-12-14T02:45:16;16.40;;;8.20;;
20511;SDS011;10414;52.074;5.126;2023-12-14T02:47:43;18.15;;;8.13;;
20511;SDS011;10414;52.074;5.126;2023-12-14T02:50:12;18.40;;;8.38;;
20511;SDS011;10414;52.074;5.126;2023-12-14T02:52:39;17.00;;;8.38;;
20511;SDS011;10414;52.074;5.126;2023-12-14T02:55:06;16.05;;;7.40;;
20511;SDS011;10414;52.074;5.126;2023-12-14T02:57:35;23.27;;;8.35;;
20511;SDS011;10414;52.074;5.126;2023-12-14T03:00:02;22.90;;;8.27;;
20511;SDS011;10414;52.074;5.126;2023-12-14T03:02:29;20.00;;;8.13;;
20511;SDS011;10414;52.074;5.126;2023-12-14T03:04:56;19.15;;;9.10;;
20511;SDS011;10414;52.074;5.126;2023-12-14T03:07:23;16.95;;;7.03;;
20511;SDS011;10414;52.074;5.126;2023-12-14T03:09:50;17.17;;;8.23;;
20511;SDS011;10414;52.074;5.126;2023-12-14T03:12:18;19.13;;;8.55;;
20511;SDS011;10414;52.074;5.126;2023-12-14T03:14:46;21.10;;;8.70;;
20511;SDS011;10414;52.074;5.126;2023-12-14T03:17:13;17.02;;;8.38;;
20511;SDS011;10414;52.074;5.126;2023-12-14T03:19:41;22.00;;;8.43;;
20511;SDS011;10414;52.074;5.126;2023-12-14T03:22:08;21.92;;;8.70;;
20511;SDS011;10414;52.074;5.126;2023-12-14T03:24:35;20.88;;;8.45;;
20511;SDS011;10414;52.074;5.126;2023-12-14T03:27:03;22.85;;;8.90;;
20511;SDS011;10414;52.074;5.126;2023-12-14T03:29:30;17.58;;;8.90;;
20511;SDS011;10414;52.074;5.126;2023-12-14T03:31:59;22.67;;;8.32;;
20511;SDS011;10414;52.074;5.126;2023-12-14T03:34:26;20.20;;;8.00;;
20511;SDS011;10414;52.074;5.126;2023-12-14T03:36:53;19.30;;;8.80;;
20511;SDS011;10414;52.074;5.126;2023-12-14T03:39:20;18.92;;;7.97;;
20511;SDS011;10414;52.074;5.126;2023-12-14T03:41:47;19.10;;;7.97;;
20511;SDS011;10414;52.074;5.126;2023-12-14T03:44:14;22.80;;;7.85;;
20511;SDS011;10414;52.074;5.126;2023-12-14T03:46:41;20.95;;;8.98;;
20511;SDS011;10414;52.074;5.126;2023-12-14T03:49:09;19.10;;;7.95;;
20511;SDS011;10414;52.074;5.126;2023-12-14T03:51:36;17.33;;;7.47;;
20511;SDS011;10414;52.074;5.126;2023-12-14T03:54:03;14.98;;;6.47;;
20511;SDS011;10414;52.074;5.126;2023-12-14T03:56:30;20.92;;;7.50;;
20511;SDS011;10414;52.074;5.126;2023-12-14T03:58:56;20.35;;;7.90;;
20511;SDS011;10414;52.074;5.126;2023-12-14T04:01:23;16.65;;;7.13;;
20511;SDS011;10414;52.074;5.126;2023-12-14T04:03:50;20.33;;;8.00;;
20511;SDS011;10414;52.074;5.126;2023-12-14T04:06:18;18.13;;;6.97;;
20511;SDS011;10414;52.074;5.126;2023-12-14T04:08:45;17.58;;;6.72;;
20511;SDS011;10414;52.074;5.126;2023-12-14T04:11:12;17.60;;;6.97;;
20511;SDS011;10414;52.074;5.126;2023-12-14T04:13:39;15.98;;;6.47;;
20511;SDS011;10414;52.074;5.126;2023-12-14T04:16:06;18.48;;;6.60;;
20511;SDS011;10414;52.074;5.126;2023-12-14T04:18:33;16.42;;;6.90;;
20511;SDS011;10414;52.074;5.126;2023-12-14T04:21:00;14.13;;;6.50;;
20511;SDS011;10414;52.074;5.126;2023-12-14T04:23:29;16.88;;;6.22;;
20511;SDS011;10414;52.074;5.126;2023-12-14T04:25:56;14.77;;;6.00;;
20511;SDS011;10414;52.074;5.126;2023-12-14T04:28:22;16.58;;;5.90;;
20511;SDS011;10414;52.074;5.126;2023-12-14T04:30:49;15.70;;;6.18;;
20511;SDS011;10414;52.074;5.126;2023-12-14T04:33:16;15.15;;;5.43;;
20511;SDS011;10414;52.074;5.126;2023-12-14T04:35:43;14.35;;;5.35;;
20511;SDS011;10414;52.074;5.126;2023-12-14T04:38:10;15.93;;;5.50;;
20511;SDS011;10414;52.074;5.126;2023-12-14T04:40:38;12.85;;;5.28;;
20511;SDS011;10414;52.074;5.126;2023-12-14T04:43:05;12.13;;;5.05;;
20511;SDS011;10414;52.074;5.126;2023-12-14T04:45:32;13.63;;;4.85;;
20511;SDS011;10414;52.074;5.126;2023-12-14T04:47:58;11.52;;;4.70;;
20511;SDS011;10414;52.074;5.126;2023-12-14T04:50:25;12.15;;;4.70;;
20511;SDS011;10414;52.074;5.126;2023-12-14T04:52:54;13.15;;;4.65;;
20511;SDS011;10414;52.074;5.126;2023-12-14T04:55:21;12.93;;;5.38;;
20511;SDS011;10414;52.074;5.126;2023-12-14T04:57:49;10.95;;;4.57;;
20511;SDS011;10414;52.074;5.126;2023-12-14T05:00:16;9.15;;;4.63;;
20511;SDS011;10414;52.074;5.126;2023-12-14T05:02:45;10.63;;;3.97;;
20511;SDS011;10414;52.074;5.126;2023-12-14T05:05:14;10.73;;;4.85;;
20511;SDS011;10414;52.074;5.126;2023-12-14T05:07:42;11.13;;;4.88;;
20511;SDS011;10414;52.074;5.126;2023-12-14T05:10:09;11.13;;;5.03;;
20511;SDS011;10414;52.074;5.126;2023-12-14T05:12:36;10.48;;;5.20;;
20511;SDS011;10414;52.074;5.126;2023-12-14T05:15:04;10.77;;;4.63;;
20511;SDS011;10414;52.074;5.126;2023-12-14T05:17:31;14.68;;;5.45;;
20511;SDS011;10414;52.074;5.126;2023-12-14T05:19:59;11.52;;;4.82;;
20511;SDS011;10414;52.074;5.126;2023-12-14T05:22:27;10.52;;;5.07;;
20511;SDS011;10414;52.074;5.126;2023-12-14T05:24:54;11.55;;;4.72;;
20511;SDS011;10414;52.074;5.126;2023-12-14T05:27:21;12.70;;;4.93;;
20511;SDS011;10414;52.074;5.126;2023-12-14T05:29:47;11.00;;;4.88;;
20511;SDS011;10414;52.074;5.126;2023-12-14T05:32:16;12.70;;;5.03;;
20511;SDS011;10414;52.074;5.126;2023-12-14T05:34:42;10.48;;;4.72;;
20511;SDS011;10414;52.074;5.126;2023-12-14T05:37:09;11.23;;;5.50;;
20511;SDS011;10414;52.074;5.126;2023-12-14T05:39:36;11.55;;;5.60;;
20511;SDS011;10414;52.074;5.126;2023-12-14T05:42:03;10.40;;;4.90;;
20511;SDS011;10414;52.074;5.126;2023-12-14T05:44:30;9.98;;;4.45;;
20511;SDS011;10414;52.074;5.126;2023-12-14T05:46:57;11.90;;;4.78;;
20511;SDS011;10414;52.074;5.126;2023-12-14T05:49:25;11.93;;;5.00;;
20511;SDS011;10414;52.074;5.126;2023-12-14T05:51:52;10.85;;;4.72;;
20511;SDS011;10414;52.074;5.126;2023-12-14T05:54:19;9.98;;;4.60;;
20511;SDS011;10414;52.074;5.126;2023-12-14T05:56:46;10.80;;;4.55;;
20511;SDS011;10414;52.074;5.126;2023-12-14T05:59:13;11.05;;;4.95;;
20511;SDS011;10414;52.074;5.126;2023-12-14T06:01:40;9.13;;;4.38;;
20511;SDS011;10414;52.074;5.126;2023-12-14T06:04:08;8.73;;;4.35;;
20511;SDS011;10414;52.074;5.126;2023-12-14T06:06:36;10.85;;;4.60;;
20511;SDS011;10414;52.074;5.126;2023-12-14T06:09:04;10.77;;;4.30;;
20511;SDS011;10414;52.074;5.126;2023-12-14T06:11:32;9.00;;;5.10;;
20511;SDS011;10414;52.074;5.126;2023-12-14T06:13:59;8.63;;;4.75;;
20511;SDS011;10414;52.074;5.126;2023-12-14T06:16:26;8.30;;;4.20;;
20511;SDS011;10414;52.074;5.126;2023-12-14T06:18:52;8.57;;;4.40;;
20511;SDS011;10414;52.074;5.126;2023-12-14T06:21:19;9.40;;;4.30;;
20511;SDS011;10414;52.074;5.126;2023-12-14T06:23:47;9.52;;;4.15;;
20511;SDS011;10414;52.074;5.126;2023-12-14T06:26:14;8.88;;;4.10;;
20511;SDS011;10414;52.074;5.126;2023-12-14T06:28:41;11.30;;;4.60;;
20511;SDS011;10414;52.074;5.126;2023-12-14T06:31:11;9.48;;;4.03;;
20511;SDS011;10414;52.074;5.126;2023-12-14T06:33:39;10.23;;;4.75;;
20511;SDS011;10414;52.074;5.126;2023-12-14T06:36:06;10.63;;;5.00;;
20511;SDS011;10414;52.074;5.126;2023-12-14T06:38:34;11.85;;;5.55;;
20511;SDS011;10414;52.074;5.126;2023-12-14T06:41:05;12.40;;;5.00;;
20511;SDS011;10414;52.074;5.126;2023-12-14T06:43:32;12.43;;;5.15;;
20511;SDS011;10414;52.074;5.126;2023-12-14T06:45:59;11.25;;;5.15;;
20511;SDS011;10414;52.074;5.126;2023-12-14T06:48:26;11.20;;;5.65;;
20511;SDS011;10414;52.074;5.126;2023-12-14T06:50:53;14.32;;;5.55;;
20511;SDS011;10414;52.074;5.126;2023-12-14T06:53:20;10.38;;;5.30;;
20511;SDS011;10414;52.074;5.126;2023-12-14T06:55:46;12.40;;;5.05;;
20511;SDS011;10414;52.074;5.126;2023-12-14T06:58:15;11.45;;;5.25;;
20511;SDS011;10414;52.074;5.126;2023-12-14T07:00:41;11.45;;;5.07;;
20511;SDS011;10414;52.074;5.126;2023-12-14T07:03:08;12.68;;;5.50;;
20511;SDS011;10414;52.074;5.126;2023-12-14T07:05:35;10.00;;;5.00;;
20511;SDS011;10414;52.074;5.126;2023-12-14T07:08:02;9.48;;;5.05;;
20511;SDS011;10414;52.074;5.126;2023-12-14T07:10:29;12.02;;;5.65;;
20511;SDS011;10414;52.074;5.126;2023-12-14T07:12:56;12.63;;;4.60;;
20511;SDS011;10414;52.074;5.126;2023-12-14T07:15:25;10.75;;;5.10;;
20511;SDS011;10414;52.074;5.126;2023-12-14T07:17:52;12.68;;;4.93;;
20511;SDS011;10414;52.074;5.126;2023-12-14T07:20:19;9.38;;;4.85;;
20511;SDS011;10414;52.074;5.126;2023-12-14T07:22:46;9.85;;;4.63;;
20511;SDS011;10414;52.074;5.126;2023-12-14T07:25:13;9.35;;;4.32;;
20511;SDS011;10414;52.074;5.126;2023-12-14T07:27:40;10.77;;;4.85;;
20511;SDS011;10414;52.074;5.126;2023-12-14T07:30:07;12.07;;;5.13;;
20511;SDS011;10414;52.074;5.126;2023-12-14T07:32:36;10.30;;;4.85;;
20511;SDS011;10414;52.074;5.126;2023-12-14T07:35:03;10.55;;;4.68;;
20511;SDS011;10414;52.074;5.126;2023-12-14T07:37:31;11.25;;;4.70;;
20511;SDS011;10414;52.074;5.126;2023-12-14T07:39:57;12.10;;;5.13;;
20511;SDS011;10414;52.074;5.126;2023-12-14T07:42:24;11.30;;;5.05;;
20511;SDS011;10414;52.074;5.126;2023-12-14T07:44:51;10.40;;;4.43;;
20511;SDS011;10414;52.074;5.126;2023-12-14T07:47:19;10.23;;;5.15;;
20511;SDS011;10414;52.074;5.126;2023-12-14T07:49:47;9.93;;;4.30;;
20511;SDS011;10414;52.074;5.126;2023-12-14T07:52:14;9.82;;;5.18;;
20511;SDS011;10414;52.074;5.126;2023-12-14T07:54:41;12.05;;;5.40;;
20511;SDS011;10414;52.074;5.126;2023-12-14T07:57:08;10.35;;;4.60;;
20511;SDS011;10414;52.074;5.126;2023-12-14T07:59:35;10.07;;;4.65;;
20511;SDS011;10414;52.074;5.126;2023-12-14T08:02:04;10.23;;;5.50;;
20511;SDS011;10414;52.074;5.126;2023-12-14T08:04:32;9.98;;;5.20;;
20511;SDS011;10414;52.074;5.126;2023-12-14T08:07:00;13.27;;;5.25;;
20511;SDS011;10414;52.074;5.126;2023-12-14T08:09:27;10.77;;;4.95;;
20511;SDS011;10414;52.074;5.126;2023-12-14T08:11:54;9.73;;;4.80;;
20511;SDS011;10414;52.074;5.126;2023-12-14T08:14:21;12.10;;;5.03;;
20511;SDS011;10414;52.074;5.126;2023-12-14T08:16:48;9.73;;;5.32;;
20511;SDS011;10414;52.074;5.126;2023-12-14T08:19:15;9.27;;;4.85;;
20511;SDS011;10414;52.074;5.126;2023-12-14T08:21:42;12.75;;;5.50;;
20511;SDS011;10414;52.074;5.126;2023-12-14T08:24:10;10.32;;;4.57;;
20511;SDS011;10414;52.074;5.126;2023-12-14T08:26:37;10.95;;;5.38;;
20511;SDS011;10414;52.074;5.126;2023-12-14T08:29:04;9.55;;;5.20;;
20511;SDS011;10414;52.074;5.126;2023-12-14T08:31:31;9.85;;;4.90;;
20511;SDS011;10414;52.074;5.126;2023-12-14T08:34:00;9.48;;;4.70;;
20511;SDS011;10414;52.074;5.126;2023-12-14T08:36:28;11.55;;;5.10;;
20511;SDS011;10414;52.074;5.126;2023-12-14T08:38:56;10.75;;;5.63;;
20511;SDS011;10414;52.074;5.126;2023-12-14T08:41:25;10.50;;;5.53;;
20511;SDS011;10414;52.074;5.126;2023-12-14T08:43:52;10.25;;;5.22;;
20511;SDS011;10414;52.074;5.126;2023-12-14T08:46:20;10.80;;;5.20;;
20511;SDS011;10414;52.074;5.126;2023-12-14T08:48:48;8.85;;;4.80;;
20511;SDS011;10414;52.074;5.126;2023-12-14T08:51:15;10.55;;;4.90;;
20511;SDS011;10414;52.074;5.126;2023-12-14T08:53:42;9.02;;;5.05;;
20511;SDS011;10414;52.074;5.126;2023-12-14T08:56:09;11.35;;;5.05;;
20511;SDS011;10414;52.074;5.126;2023-12-14T08:58:37;8.73;;;4.57;;
20511;SDS011;10414;52.074;5.126;2023-12-14T09:01:04;10.77;;;4.72;;
20511;SDS011;10414;52.074;5.126;2023-12-14T09:03:32;9.55;;;4.30;;
20511;SDS011;10414;52.074;5.126;2023-12-14T09:05:58;9.95;;;4.82;;
20511;SDS011;10414;52.074;5.126;2023-12-14T09:08:30;11.25;;;4.68;;
20511;SDS011;10414;52.074;5.126;2023-12-14T09:10:57;9.73;;;4.55;;
20511;SDS011;10414;52.074;5.126;2023-12-14T09:13:24;11.02;;;4.75;;
20511;SDS011;10414;52.074;5.126;2023-12-14T09:15:52;8.45;;;4.45;;
20511;SDS011;10414;52.074;5.126;2023-12-14T09:18:19;7.97;;;4.57;;
20511;SDS011;10414;52.074;5.126;2023-12-14T09:20:47;9.35;;;4.45;;
20511;SDS011;10414;52.074;5.126;2023-12-14T09:23:15;9.93;;;4.85;;
20511;SDS011;10414;52.074;5.126;2023-12-14T09:25:44;9.25;;;4.28;;
20511;SDS011;10414;52.074;5.126;2023-12-14T09:28:11;8.35;;;3.92;;
20511;SDS011;10414;52.074;5.126;2023-12-14T09:30:38;9.68;;;4.53;;
20511;SDS011;10414;52.074;5.126;2023-12-14T09:33:06;9.88;;;5.07;;
20511;SDS011;10414;52.074;5.126;2023-12-14T09:35:33;11.05;;;4.25;;
20511;SDS011;10414;52.074;5.126;2023-12-14T09:38:02;9.50;;;4.05;;
20511;SDS011;10414;52.074;5.126;2023-12-14T09:40:29;7.20;;;3.53;;
20511;SDS011;10414;52.074;5.126;2023-12-14T09:42:58;11.52;;;4.10;;
20511;SDS011;10414;52.074;5.126;2023-12-14T09:45:27;7.32;;;3.92;;
20511;SDS011;10414;52.074;5.126;2023-12-14T09:47:55;8.10;;;3.70;;
20511;SDS011;10414;52.074;5.126;2023-12-14T09:50:24;8.15;;;3.30;;
20511;SDS011;10414;52.074;5.126;2023-12-14T09:52:51;8.73;;;3.78;;
20511;SDS011;10414;52.074;5.126;2023-12-14T09:55:18;5.85;;;3.00;;
20511;SDS011;10414;52.074;5.126;2023-12-14T09:57:45;5.85;;;3.15;;
20511;SDS011;10414;52.074;5.126;2023-12-14T10:00:12;6.72;;;2.92;;
20511;SDS011;10414;52.074;5.126;2023-12-14T10:03:17;7.32;;;2.75;;
20511;SDS011;10414;52.074;5.126;2023-12-14T10:05:47;5.20;;;2.70;;
20511;SDS011;10414;52.074;5.126;2023-12-14T10:08:14;5.28;;;2.60;;
20511;SDS011;10414;52.074;5.126;2023-12-14T10:10:41;6.25;;;2.80;;
20511;SDS011;10414;52.074;5.126;2023-12-14T10:13:08;4.72;;;2.50;;
20511;SDS011;10414;52.074;5.126;2023-12-14T10:15:42;4.85;;;2.70;;
20511;SDS011;10414;52.074;5.126;2023-12-14T10:18:09;4.47;;;2.33;;
20511;SDS011;10414;52.074;5.126;2023-12-14T10:20:36;5.20;;;2.80;;
20511;SDS011;10414;52.074;5.126;2023-12-14T10:23:05;7.32;;;2.72;;
20511;SDS011;10414;52.074;5.126;2023-12-14T10:25:34;6.78;;;3.30;;
20511;SDS011;10414;52.074;5.126;2023-12-14T10:28:01;6.28;;;3.28;;
20511;SDS011;10414;52.074;5.126;2023-12-14T10:30:28;6.15;;;3.58;;
20511;SDS011;10414;52.074;5.126;2023-12-14T10:32:56;6.18;;;2.75;;
20511;SDS011;10414;52.074;5.126;2023-12-14T10:35:23;7.80;;;3.20;;
20511;SDS011;10414;52.074;5.126;2023-12-14T10:37:50;7.07;;;3.22;;
20511;SDS011;10414;52.074;5.126;2023-12-14T10:40:20;6.47;;;3.20;;
20511;SDS011;10414;52.074;5.126;2023-12-14T10:42:49;6.38;;;3.05;;
20511;SDS011;10414;52.074;5.126;2023-12-14T10:45:16;6.05;;;3.13;;
20511;SDS011;10414;52.074;5.126;2023-12-14T10:47:45;5.78;;;3.03;;
20511;SDS011;10414;52.074;5.126;2023-12-14T10:50:14;6.95;;;3.00;;
20511;SDS011;10414;52.074;5.126;2023-12-14T10:52:41;7.93;;;2.88;;
20511;SDS011;10414;52.074;5.126;2023-12-14T10:55:10;6.07;;;3.13;;
20511;SDS011;10414;52.074;5.126;2023-12-14T10:57:46;4.82;;;2.47;;
20511;SDS011;10414;52.074;5.126;2023-12-14T11:00:13;6.22;;;2.30;;
20511;SDS011;10414;52.074;5.126;2023-12-14T11:02:44;5.47;;;2.40;;
20511;SDS011;10414;52.074;5.126;2023-12-14T11:05:12;7.72;;;2.47;;
20511;SDS011;10414;52.074;5.126;2023-12-14T11:07:45;5.00;;;2.53;;
20511;SDS011;10414;52.074;5.126;2023-12-14T11:10:13;5.72;;;2.20;;
20511;SDS011;10414;52.074;5.126;2023-12-14T11:13:00;6.93;;;2.50;;
20511;SDS011;10414;52.074;5.126;2023-12-14T11:15:28;4.93;;;2.50;;
20511;SDS011;10414;52.074;5.126;2023-12-14T11:20:48;6.03;;;2.72;;
20511;SDS011;10414;52.074;5.126;2023-12-14T11:23:16;6.93;;;3.00;;
20511;SDS011;10414;52.074;5.126;2023-12-14T11:25:48;6.68;;;2.67;;
20511;SDS011;10414;52.074;5.126;2023-12-14T11:28:18;4.70;;;2.60;;
20511;SDS011;10414;52.074;5.126;2023-12-14T11:30:46;5.88;;;2.92;;
20511;SDS011;10414;52.074;5.126;2023-12-14T11:33:13;6.78;;;2.60;;
20511;SDS011;10414;52.074;5.126;2023-12-14T11:35:41;7.32;;;3.40;;
20511;SDS011;10414;52.074;5.126;2023-12-14T11:38:08;4.78;;;2.70;;
20511;SDS011;10414;52.074;5.126;2023-12-14T11:40:38;6.82;;;2.90;;
20511;SDS011;10414;52.074;5.126;2023-12-14T11:43:05;5.43;;;3.03;;
20511;SDS011;10414;52.074;5.126;2023-12-14T11:45:34;5.85;;;3.10;;
20511;SDS011;10414;52.074;5.126;2023-12-14T11:48:02;6.32;;;3.30;;
20511;SDS011;10414;52.074;5.126;2023-12-14T11:50:30;7.20;;;3.33;;
20511;SDS011;10414;52.074;5.126;2023-12-14T11:52:58;6.45;;;3.45;;
20511;SDS011;10414;52.074;5.126;2023-12-14T11:55:26;7.15;;;3.00;;
20511;SDS011;10414;52.074;5.126;2023-12-14T11:57:53;7.22;;;3.38;;
20511;SDS011;10414;52.074;5.126;2023-12-14T12:00:23;8.10;;;3.65;;
20511;SDS011;10414;52.074;5.126;2023-12-14T12:02:53;5.90;;;3.00;;
20511;SDS011;10414;52.074;5.126;2023-12-14T12:05:36;8.52;;;4.25;;
20511;SDS011;10414;52.074;5.126;2023-12-14T12:08:05;7.80;;;3.50;;
20511;SDS011;10414;52.074;5.126;2023-12-14T12:10:32;6.35;;;3.65;;
20511;SDS011;10414;52.074;5.126;2023-12-14T12:13:00;8.23;;;3.65;;
20511;SDS011;10414;52.074;5.126;2023-12-14T12:15:30;7.63;;;3.65;;
20511;SDS011;10414;52.074;5.126;2023-12-14T12:17:59;7.88;;;3.63;;
20511;SDS011;10414;52.074;5.126;2023-12-14T12:20:26;10.32;;;4.15;;
20511;SDS011;10414;52.074;5.126;2023-12-14T12:22:53;8.32;;;3.97;;
20511;SDS011;10414;52.074;5.126;2023-12-14T12:25:20;9.20;;;4.20;;
20511;SDS011;10414;52.074;5.126;2023-12-14T12:27:48;9.48;;;3.83;;
20511;SDS011;10414;52.074;5.126;2023-12-14T12:30:14;8.63;;;3.83;;
20511;SDS011;10414;52.074;5.126;2023-12-14T12:32:41;7.95;;;4.15;;
20511;SDS011;10414;52.074;5.126;2023-12-14T12:35:10;10.10;;;4.15;;
20511;SDS011;10414;52.074;5.126;2023-12-14T12:37:37;7.90;;;4.15;;
20511;SDS011;10414;52.074;5.126;2023-12-14T12:40:04;11.70;;;4.32;;
20511;SDS011;10414;52.074;5.126;2023-12-14T12:42:32;8.13;;;4.22;;
20511;SDS011;10414;52.074;5.126;2023-12-14T12:44:59;9.02;;;4.25;;
20511;SDS011;10414;52.074;5.126;2023-12-14T12:47:26;8.80;;;4.60;;
20511;SDS011;10414;52.074;5.126;2023-12-14T12:49:54;8.25;;;4.28;;
20511;SDS011;10414;52.074;5.126;2023-12-14T12:52:23;8.85;;;4.47;;
20511;SDS011;10414;52.074;5.126;2023-12-14T12:54:50;10.77;;;4.68;;
20511;SDS011;10414;52.074;5.126;2023-12-14T12:57:16;9.68;;;4.93;;
20511;SDS011;10414;52.074;5.126;2023-12-14T12:59:43;13.27;;;5.32;;
20511;SDS011;10414;52.074;5.126;2023-12-14T13:02:10;15.57;;;5.00;;
20511;SDS011;10414;52.074;5.126;2023-12-14T13:04:37;11.35;;;4.80;;
20511;SDS011;10414;52.074;5.126;2023-12-14T13:07:05;10.38;;;5.32;;
20511;SDS011;10414;52.074;5.126;2023-12-14T13:09:33;9.40;;;4.75;;
20511;SDS011;10414;52.074;5.126;2023-12-14T13:12:00;11.95;;;4.60;;
20511;SDS011;10414;52.074;5.126;2023-12-14T13:14:30;11.00;;;5.13;;
20511;SDS011;10414;52.074;5.126;2023-12-14T13:16:59;9.65;;;4.82;;
20511;SDS011;10414;52.074;5.126;2023-12-14T13:19:26;9.40;;;4.90;;
20511;SDS011;10414;52.074;5.126;2023-12-14T13:21:55;11.20;;;4.80;;
20511;SDS011;10414;52.074;5.126;2023-12-14T13:24:24;10.10;;;5.60;;
20511;SDS011;10414;52.074;5.126;2023-12-14T13:26:52;10.75;;;5.28;;
20511;SDS011;10414;52.074;5.126;2023-12-14T13:29:19;9.63;;;5.00;;
20511;SDS011;10414;52.074;5.126;2023-12-14T13:31:47;9.23;;;4.63;;
20511;SDS011;10414;52.074;5.126;2023-12-14T13:34:14;11.98;;;5.10;;
20511;SDS011;10414;52.074;5.126;2023-12-14T13:36:41;11.27;;;5.78;;
20511;SDS011;10414;52.074;5.126;2023-12-14T13:39:08;14.15;;;5.25;;
20511;SDS011;10414;52.074;5.126;2023-12-14T13:41:36;10.15;;;4.80;;
20511;SDS011;10414;52.074;5.126;2023-12-14T13:44:05;11.70;;;4.93;;
20511;SDS011;10414;52.074;5.126;2023-12-14T13:46:31;9.82;;;4.80;;
20511;SDS011;10414;52.074;5.126;2023-12-14T13:48:58;10.65;;;5.07;;
20511;SDS011;10414;52.074;5.126;2023-12-14T13:51:26;11.30;;;5.20;;
20511;SDS011;10414;52.074;5.126;2023-12-14T13:53:54;11.13;;;4.78;;
20511;SDS011;10414;52.074;5.126;2023-12-14T13:56:21;11.27;;;5.20;;
20511;SDS011;10414;52.074;5.126;2023-12-14T13:58:49;13.27;;;5.60;;
20511;SDS011;10414;52.074;5.126;2023-12-14T14:01:17;10.10;;;5.10;;
20511;SDS011;10414;52.074;5.126;2023-12-14T14:03:44;12.23;;;5.22;;
20511;SDS011;10414;52.074;5.126;2023-12-14T14:06:12;10.48;;;4.78;;
20511;SDS011;10414;52.074;5.126;2023-12-14T14:08:39;9.93;;;4.88;;
20511;SDS011;10414;52.074;5.126;2023-12-14T14:11:05;12.57;;;4.93;;
20511;SDS011;10414;52.074;5.126;2023-12-14T14:13:32;10.02;;;5.03;;
20511;SDS011;10414;52.074;5.126;2023-12-14T14:15:59;12.40;;;5.35;;
20511;SDS011;10414;52.074;5.126;2023-12-14T14:18:27;11.07;;;4.85;;
20511;SDS011;10414;52.074;5.126;2023-12-14T14:20:54;12.38;;;4.85;;
20511;SDS011;10414;52.074;5.126;2023-12-14T14:23:21;11.50;;;4.85;;
20511;SDS011;10414;52.074;5.126;2023-12-14T14:25:49;10.50;;;5.10;;
20511;SDS011;10414;52.074;5.126;2023-12-14T14:28:19;12.35;;;4.93;;
20511;SDS011;10414;52.074;5.126;2023-12-14T14:30:46;10.32;;;5.10;;
20511;SDS011;10414;52.074;5.126;2023-12-14T14:33:13;13.82;;;4.93;;
20511;SDS011;10414;52.074;5.126;2023-12-14T14:35:44;10.60;;;4.80;;
20511;SDS011;10414;52.074;5.126;2023-12-14T14:38:15;12.07;;;4.93;;
20511;SDS011;10414;52.074;5.126;2023-12-14T14:40:42;11.45;;;5.18;;
20511;SDS011;10414;52.074;5.126;2023-12-14T14:43:10;12.25;;;5.45;;